createdAt,value
2022-10-21T00:00:37.400Z,99.90
2022-10-21T00:03:04.488Z,99.90
2022-10-21T00:05:31.599Z,99.90
2022-10-21T00:07:58.540Z,99.90
2022-10-21T00:10:25.448Z,99.90
2022-10-21T00:12:52.304Z,99.90
2022-10-21T00:15:19.160Z,99.90
2022-10-21T00:17:46.038Z,99.90
2022-10-21T00:20:13.291Z,99.90
2022-10-21T00:22:40.863Z,99.90
2022-10-21T00:25:08.765Z,99.90
2022-10-21T00:27:36.454Z,99.90
2022-10-21T00:30:07.046Z,99.90
2022-10-21T00:32:34.453Z,99.90
2022-10-21T00:35:01.264Z,99.90
2022-10-21T00:37:30.945Z,99.90
2022-10-21T00:39:58.262Z,99.90
2022-10-21T00:42:33.333Z,99.90
2022-10-21T00:45:14.990Z,99.90
2022-10-21T00:50:27.604Z,99.90
2022-10-21T00:52:56.597Z,99.90
2022-10-21T00:55:25.902Z,99.90
2022-10-21T00:57:53.379Z,99.90
2022-10-21T01:00:20.385Z,99.90
2022-10-21T01:02:47.326Z,99.90
2022-10-21T01:05:16.093Z,99.90
2022-10-21T01:07:43.095Z,99.90
2022-10-21T01:10:10.307Z,99.90
2022-10-21T01:13:09.931Z,99.90
2022-10-21T01:16:09.179Z,99.90
2022-10-21T01:19:03.409Z,99.90
2022-10-21T01:21:44.029Z,99.90
2022-10-21T01:24:32.447Z,99.90
2022-10-21T01:27:23.909Z,99.90
2022-10-21T01:30:09.348Z,99.90
2022-10-21T01:32:56.556Z,99.90
2022-10-21T01:35:47.361Z,99.90
2022-10-21T01:38:43.177Z,99.90
2022-10-21T01:41:13.379Z,99.90
2022-10-21T01:43:54.262Z,99.90
2022-10-21T01:49:30.839Z,99.90
2022-10-21T01:51:59.343Z,99.90
2022-10-21T01:54:35.312Z,99.90
2022-10-21T01:57:03.590Z,99.90
2022-10-21T01:59:32.620Z,99.90
2022-10-21T02:02:04.510Z,99.90
2022-10-21T02:04:33.420Z,99.90
2022-10-21T02:07:00.280Z,99.90
2022-10-21T02:09:27.591Z,99.90
2022-10-21T02:11:58.391Z,99.90
2022-10-21T02:17:07.941Z,99.90
2022-10-21T02:19:34.695Z,99.90
2022-10-21T02:22:03.169Z,99.90
2022-10-21T02:24:46.103Z,99.90
2022-10-21T02:27:12.993Z,99.90
2022-10-21T02:29:42.909Z,99.90
2022-10-21T02:32:28.308Z,99.90
2022-10-21T02:35:29.201Z,99.90
2022-10-21T02:38:22.481Z,99.90
2022-10-21T02:41:02.643Z,99.90
2022-10-21T02:43:36.882Z,99.90
2022-10-21T02:46:10.055Z,99.90
2022-10-21T02:48:38.571Z,99.90
2022-10-21T02:51:07.502Z,99.90
2022-10-21T02:53:35.151Z,99.90
2022-10-21T02:56:02.337Z,99.90
2022-10-21T02:58:29.430Z,99.90
2022-10-21T03:00:56.808Z,99.90
2022-10-21T03:03:23.599Z,99.90
2022-10-21T03:05:50.578Z,99.90
2022-10-21T03:08:17.398Z,99.90
2022-10-21T03:10:46.117Z,99.90
2022-10-21T03:13:14.789Z,99.90
2022-10-21T03:15:41.539Z,99.90
2022-10-21T03:18:08.336Z,99.90
2022-10-21T03:20:35.278Z,99.90
2022-10-21T03:23:02.122Z,99.90
2022-10-21T03:25:31.730Z,99.90
2022-10-21T03:28:02.007Z,99.90
2022-10-21T03:30:28.849Z,99.90
2022-10-21T03:32:55.574Z,99.90
2022-10-21T03:35:22.486Z,99.90
2022-10-21T03:37:49.273Z,99.90
2022-10-21T03:40:16.104Z,99.90
2022-10-21T03:42:42.909Z,99.90
2022-10-21T03:45:10.482Z,99.90
2022-10-21T03:47:37.706Z,99.90
2022-10-21T03:50:06.512Z,99.90
2022-10-21T03:52:35.911Z,99.90
2022-10-21T03:55:02.912Z,99.90
2022-10-21T03:57:29.663Z,99.90
2022-10-21T03:59:56.413Z,99.90
2022-10-21T04:02:23.227Z,99.90
2022-10-21T04:04:50.044Z,99.90
2022-10-21T04:07:16.782Z,99.90
2022-10-21T04:09:43.549Z,99.90
2022-10-21T04:12:11.060Z,99.90
2022-10-21T04:14:39.074Z,99.90
2022-10-21T04:17:07.879Z,99.90
2022-10-21T04:19:34.947Z,99.90
2022-10-21T04:22:01.688Z,99.90
2022-10-21T04:24:28.599Z,99.90
2022-10-21T04:26:55.408Z,99.90
2022-10-21T04:29:22.203Z,99.90
2022-10-21T04:31:48.983Z,99.90
2022-10-21T04:34:15.841Z,99.90
2022-10-21T04:36:42.619Z,99.90
2022-10-21T04:39:09.414Z,99.90
2022-10-21T04:41:36.423Z,99.90
2022-10-21T04:44:03.977Z,99.90
2022-10-21T04:46:36.887Z,99.90
2022-10-21T04:49:03.655Z,99.90
2022-10-21T04:54:17.235Z,99.90
2022-10-21T04:56:44.014Z,99.90
2022-10-21T04:59:11.073Z,99.90
2022-10-21T05:01:37.853Z,99.90
2022-10-21T05:04:04.689Z,99.90
2022-10-21T05:06:31.491Z,99.90
2022-10-21T05:08:58.316Z,99.90
2022-10-21T05:11:25.224Z,99.90
2022-10-21T05:13:51.976Z,99.90
2022-10-21T05:16:18.804Z,99.90
2022-10-21T05:18:45.566Z,99.90
2022-10-21T05:21:12.808Z,99.90
2022-10-21T05:23:39.599Z,99.90
2022-10-21T05:26:06.342Z,99.90
2022-10-21T05:28:33.329Z,99.90
2022-10-21T05:31:00.108Z,99.90
2022-10-21T05:33:26.947Z,99.90
2022-10-21T05:36:01.881Z,99.90
2022-10-21T05:38:29.576Z,99.90
2022-10-21T05:40:56.450Z,99.90
2022-10-21T05:43:24.282Z,99.90
2022-10-21T05:45:51.037Z,99.90
2022-10-21T05:48:18.356Z,99.90
2022-10-21T05:50:46.782Z,99.90
2022-10-21T05:53:14.507Z,99.90
2022-10-21T05:55:41.342Z,99.90
2022-10-21T05:58:08.116Z,99.90
2022-10-21T06:00:35.345Z,99.90
2022-10-21T06:03:02.207Z,99.90
2022-10-21T06:05:28.992Z,99.90
2022-10-21T06:07:55.742Z,99.90
2022-10-21T06:10:26.705Z,99.90
2022-10-21T06:12:55.882Z,99.90
2022-10-21T06:15:22.682Z,99.90
2022-10-21T06:17:49.430Z,99.90
2022-10-21T06:20:16.430Z,99.90
2022-10-21T06:22:43.213Z,99.90
2022-10-21T06:25:10.125Z,99.90
2022-10-21T06:27:37.348Z,99.90
2022-10-21T06:30:05.807Z,99.90
2022-10-21T06:32:32.960Z,99.90
2022-10-21T06:34:59.723Z,99.90
2022-10-21T06:37:26.498Z,99.90
2022-10-21T06:39:53.257Z,99.90
2022-10-21T06:42:20.478Z,99.90
2022-10-21T06:44:47.753Z,99.90
2022-10-21T06:47:14.697Z,99.90
2022-10-21T06:49:41.512Z,99.90
2022-10-21T06:52:08.495Z,99.90
2022-10-21T06:54:35.442Z,99.90
2022-10-21T06:57:03.219Z,99.90
2022-10-21T06:59:30.555Z,99.90
2022-10-21T07:02:01.120Z,99.90
2022-10-21T07:04:28.927Z,99.90
2022-10-21T07:06:55.699Z,99.90
2022-10-21T07:09:22.610Z,99.90
2022-10-21T07:11:49.382Z,99.90
2022-10-21T07:14:16.146Z,99.90
2022-10-21T07:16:42.962Z,99.90
2022-10-21T07:19:10.868Z,99.90
2022-10-21T07:21:37.786Z,99.90
2022-10-21T07:24:04.722Z,99.90
2022-10-21T07:26:34.254Z,99.90
2022-10-21T07:29:01.397Z,99.90
2022-10-21T07:31:31.650Z,99.90
2022-10-21T07:36:52.759Z,99.90
2022-10-21T07:39:23.745Z,99.90
2022-10-21T07:41:53.432Z,99.90
2022-10-21T07:44:22.827Z,99.90
2022-10-21T07:46:50.928Z,99.90
2022-10-21T07:49:19.271Z,99.90
2022-10-21T07:51:46.491Z,99.90
2022-10-21T07:54:14.426Z,99.90
2022-10-21T07:56:50.171Z,99.90
2022-10-21T07:59:18.887Z,99.90
2022-10-21T08:04:34.518Z,99.90
2022-10-21T08:07:01.406Z,99.90
2022-10-21T08:09:28.271Z,99.90
2022-10-21T08:11:55.541Z,99.90
2022-10-21T08:14:22.443Z,99.90
2022-10-21T08:16:53.952Z,99.90
2022-10-21T08:19:25.341Z,99.90
2022-10-21T08:21:52.135Z,99.90
2022-10-21T08:24:19.010Z,99.90
2022-10-21T08:26:45.807Z,99.90
2022-10-21T08:29:12.546Z,99.90
2022-10-21T08:31:39.502Z,99.90
2022-10-21T08:34:06.387Z,99.90
2022-10-21T08:36:33.142Z,99.90
2022-10-21T08:38:59.982Z,99.90
2022-10-21T08:41:29.563Z,99.90
2022-10-21T08:44:00.616Z,99.90
2022-10-21T08:46:45.437Z,99.90
2022-10-21T08:49:30.750Z,99.90
2022-10-21T08:52:03.482Z,99.90
2022-10-21T08:54:43.455Z,99.90
2022-10-21T08:57:11.913Z,99.90
2022-10-21T08:59:42.098Z,99.90
2022-10-21T09:02:35.894Z,99.90
2022-10-21T09:05:33.903Z,99.90
2022-10-21T09:08:13.329Z,99.90
2022-10-21T09:10:51.561Z,99.90
2022-10-21T09:13:22.599Z,99.90
2022-10-21T09:16:07.363Z,99.90
2022-10-21T09:18:51.910Z,99.90
2022-10-21T09:21:43.067Z,99.90
2022-10-21T09:24:19.004Z,99.90
2022-10-21T09:26:50.493Z,99.90
2022-10-21T09:29:32.049Z,99.90
2022-10-21T09:32:23.595Z,99.90
2022-10-21T09:35:08.631Z,99.90
2022-10-21T09:37:42.037Z,99.90
2022-10-21T09:40:28.439Z,99.90
2022-10-21T09:42:59.014Z,99.90
2022-10-21T09:45:39.133Z,99.90
2022-10-21T09:48:18.143Z,99.90
2022-10-21T09:50:52.119Z,99.90
2022-10-21T09:53:26.704Z,99.90
2022-10-21T09:56:01.945Z,99.90
2022-10-21T09:58:37.326Z,99.90
2022-10-21T10:01:06.134Z,99.90
2022-10-21T10:03:37.395Z,99.90
2022-10-21T10:06:05.879Z,99.90
2022-10-21T10:08:35.539Z,99.90
2022-10-21T10:11:05.678Z,99.90
2022-10-21T10:13:32.459Z,99.90
2022-10-21T10:16:24.403Z,99.90
2022-10-21T10:18:53.966Z,99.90
2022-10-21T10:21:22.527Z,99.90
2022-10-21T10:23:52.321Z,99.90
2022-10-21T10:26:21.716Z,99.90
2022-10-21T10:28:51.641Z,99.90
2022-10-21T10:31:31.695Z,99.90
2022-10-21T10:34:03.998Z,99.90
2022-10-21T10:36:39.077Z,99.90
2022-10-21T10:39:16.051Z,99.90
2022-10-21T10:41:48.753Z,99.90
2022-10-21T10:44:24.179Z,99.90
2022-10-21T10:46:55.962Z,99.90
2022-10-21T10:49:24.565Z,99.90
2022-10-21T10:52:09.878Z,99.90
2022-10-21T10:54:38.599Z,99.90
2022-10-21T10:57:13.818Z,99.90
2022-10-21T11:08:55.053Z,99.90
2022-10-21T11:11:26.381Z,99.90
2022-10-21T11:13:54.074Z,99.90
2022-10-21T11:16:59.055Z,99.90
2022-10-21T11:19:51.479Z,99.90
2022-10-21T11:22:38.363Z,99.90
2022-10-21T11:25:28.304Z,99.90
2022-10-21T11:28:13.763Z,99.90
2022-10-21T11:30:57.225Z,99.90
2022-10-21T11:33:42.198Z,99.90
2022-10-21T11:36:27.345Z,99.90
2022-10-21T11:39:21.395Z,99.90
2022-10-21T11:41:57.865Z,99.90
2022-10-21T11:44:53.711Z,99.90
2022-10-21T11:47:58.298Z,99.90
2022-10-21T11:50:39.228Z,99.90
2022-10-21T11:53:26.204Z,99.90
2022-10-21T11:56:13.817Z,99.90
2022-10-21T11:59:12.722Z,99.90
2022-10-21T12:01:59.364Z,99.90
2022-10-21T12:04:35.831Z,99.90
2022-10-21T12:07:14.639Z,99.90
2022-10-21T12:10:11.902Z,99.90
2022-10-21T12:12:43.034Z,99.90
2022-10-21T12:15:46.326Z,99.90
2022-10-21T12:18:19.499Z,99.90
2022-10-21T12:20:50.193Z,99.90
2022-10-21T12:23:20.502Z,99.90
2022-10-21T12:26:13.908Z,99.90
2022-10-21T12:28:49.283Z,99.90
2022-10-21T12:31:31.867Z,99.90
2022-10-21T12:33:58.954Z,99.90
2022-10-21T12:36:45.256Z,99.90
2022-10-21T12:39:33.968Z,99.90
2022-10-21T12:42:16.346Z,99.90
2022-10-21T12:44:51.262Z,99.90
2022-10-21T12:47:31.118Z,99.90
2022-10-21T12:50:19.544Z,99.90
2022-10-21T12:53:02.162Z,99.90
2022-10-21T12:55:30.352Z,99.90
2022-10-21T12:58:02.408Z,99.90
2022-10-21T13:00:29.152Z,99.90
2022-10-21T13:03:04.849Z,99.90
2022-10-21T13:05:37.714Z,99.90
2022-10-21T13:08:22.728Z,99.90
2022-10-21T13:11:07.474Z,99.90
2022-10-21T13:13:40.213Z,99.90
2022-10-21T13:16:16.054Z,99.90
2022-10-21T13:19:26.339Z,99.90
2022-10-21T13:22:11.298Z,99.90
2022-10-21T13:24:39.127Z,99.90
2022-10-21T13:27:24.633Z,99.90
2022-10-21T13:29:52.117Z,99.90
2022-10-21T13:32:24.115Z,99.90
2022-10-21T13:34:50.957Z,99.90
2022-10-21T13:37:38.788Z,99.90
2022-10-21T13:40:16.372Z,99.90
2022-10-21T13:42:48.018Z,99.90
2022-10-21T13:45:37.350Z,99.90
2022-10-21T13:48:06.110Z,99.90
2022-10-21T13:50:38.758Z,99.90
2022-10-21T13:53:15.346Z,99.90
2022-10-21T13:55:42.143Z,99.90
2022-10-21T13:58:18.323Z,99.90
2022-10-21T14:00:45.124Z,99.90
2022-10-21T14:03:19.054Z,99.90
2022-10-21T14:05:58.127Z,99.90
2022-10-21T14:08:39.384Z,99.90
2022-10-21T14:11:21.025Z,99.90
2022-10-21T14:13:50.590Z,99.90
2022-10-21T14:16:39.695Z,99.90
2022-10-21T14:19:19.957Z,99.90
2022-10-21T14:21:50.565Z,99.90
2022-10-21T14:24:26.235Z,76.60
2022-10-21T14:26:53.609Z,89.10
2022-10-21T14:29:23.525Z,81.70
2022-10-21T14:31:50.770Z,77.10
2022-10-21T14:34:25.638Z,80.40
2022-10-21T14:37:09.396Z,77.20
2022-10-21T14:39:39.461Z,26.10
2022-10-21T14:42:16.998Z,5.40
2022-10-21T14:44:45.528Z,6.00
2022-10-21T14:47:21.770Z,13.70
2022-10-21T14:49:50.835Z,18.80
2022-10-21T14:52:43.142Z,13.90
2022-10-21T14:55:15.893Z,1.00
2022-10-21T14:57:52.608Z,1.40
2022-10-21T15:00:30.452Z,1.00
2022-10-21T15:02:58.199Z,28.20
2022-10-21T15:05:48.014Z,35.30
2022-10-21T15:08:22.832Z,44.10
2022-10-21T15:11:00.278Z,67.50
2022-10-21T15:13:27.259Z,86.20
2022-10-21T15:15:56.671Z,93.30
2022-10-21T15:18:31.115Z,89.00
2022-10-21T15:21:10.581Z,90.80
2022-10-21T15:23:39.312Z,90.50
2022-10-21T15:26:18.961Z,93.60
2022-10-21T15:28:46.028Z,99.90
2022-10-21T15:31:24.373Z,99.90
2022-10-21T15:33:53.553Z,99.90
2022-10-21T15:36:20.825Z,99.90
2022-10-21T15:38:48.549Z,99.90
2022-10-21T15:41:23.399Z,99.90
2022-10-21T15:44:01.070Z,99.90
2022-10-21T15:46:30.257Z,99.90
2022-10-21T15:48:58.431Z,99.90
2022-10-21T15:51:25.177Z,99.90
2022-10-21T15:53:51.947Z,99.90
2022-10-21T15:56:19.897Z,99.90
2022-10-21T15:58:46.903Z,99.90
2022-10-21T16:01:16.764Z,99.90
2022-10-21T16:03:44.975Z,99.90
2022-10-21T16:06:16.657Z,99.90
2022-10-21T16:08:43.703Z,99.90
2022-10-21T16:11:25.721Z,99.90
2022-10-21T16:14:01.929Z,99.90
2022-10-21T16:16:28.899Z,99.90
2022-10-21T16:18:55.665Z,99.90
2022-10-21T16:21:23.491Z,99.90
2022-10-21T16:23:50.752Z,99.90
2022-10-21T16:26:23.389Z,99.90
2022-10-21T16:28:51.768Z,99.90
2022-10-21T16:31:19.227Z,99.90
2022-10-21T16:33:46.223Z,99.90
2022-10-21T16:36:18.133Z,99.90
2022-10-21T16:38:46.322Z,99.90
2022-10-21T16:41:18.922Z,99.90
2022-10-21T16:43:46.095Z,99.90
2022-10-21T16:46:32.166Z,99.90
2022-10-21T16:49:00.511Z,99.90
2022-10-21T16:51:29.515Z,99.90
2022-10-21T16:53:56.739Z,99.90
2022-10-21T16:56:23.709Z,99.90
2022-10-21T16:58:52.594Z,99.90
2022-10-21T17:01:22.825Z,99.90
2022-10-21T17:03:50.486Z,99.90
2022-10-21T17:06:22.657Z,99.90
2022-10-21T17:08:51.354Z,99.90
2022-10-21T17:11:38.946Z,99.90
2022-10-21T17:14:09.182Z,99.90
2022-10-21T17:16:35.991Z,99.90
2022-10-21T17:19:03.118Z,99.90
2022-10-21T17:21:32.463Z,99.90
2022-10-21T17:24:01.543Z,99.90
2022-10-21T17:26:30.225Z,99.90
2022-10-21T17:28:57.841Z,99.90
2022-10-21T17:31:27.574Z,99.90
2022-10-21T17:33:57.709Z,99.90
2022-10-21T17:36:24.909Z,99.90
2022-10-21T17:38:51.795Z,99.90
2022-10-21T17:41:21.899Z,99.90
2022-10-21T17:43:48.781Z,99.90
2022-10-21T17:46:20.735Z,99.90
2022-10-21T17:48:51.383Z,99.90
2022-10-21T17:51:18.839Z,99.90
2022-10-21T17:53:49.744Z,99.90
2022-10-21T17:56:17.310Z,99.90
2022-10-21T17:58:44.381Z,99.90
2022-10-21T18:01:13.254Z,99.90
2022-10-21T18:03:40.287Z,99.90
2022-10-21T18:06:09.792Z,99.90
2022-10-21T18:08:37.906Z,99.90
2022-10-21T18:11:13.881Z,99.90
2022-10-21T18:13:41.786Z,99.90
2022-10-21T18:16:15.096Z,99.90
2022-10-21T18:21:29.316Z,99.90
2022-10-21T18:23:56.463Z,99.90
2022-10-21T18:26:26.741Z,99.90
2022-10-21T18:28:57.260Z,99.90
2022-10-21T18:31:26.178Z,99.90
2022-10-21T18:33:54.751Z,99.90
2022-10-21T18:36:21.630Z,99.90
2022-10-21T18:38:48.534Z,99.90
2022-10-21T18:41:20.474Z,99.90
2022-10-21T18:43:53.483Z,99.90
2022-10-21T18:46:21.399Z,99.90
2022-10-21T18:48:48.485Z,99.90
2022-10-21T18:51:20.753Z,99.90
2022-10-21T18:53:51.600Z,99.90
2022-10-21T18:56:20.809Z,99.90
2022-10-21T18:58:47.655Z,99.90
2022-10-21T19:01:15.267Z,99.90
2022-10-21T19:03:42.750Z,99.90
2022-10-21T19:06:33.491Z,99.90
2022-10-21T19:09:03.590Z,99.90
2022-10-21T19:11:30.597Z,99.90
2022-10-21T19:13:57.682Z,99.90
2022-10-21T19:16:24.915Z,99.90
2022-10-21T19:18:52.572Z,99.90
2022-10-21T19:21:20.759Z,99.90
2022-10-21T19:23:47.934Z,99.90
2022-10-21T19:26:17.829Z,99.90
2022-10-21T19:28:47.361Z,99.90
2022-10-21T19:31:15.191Z,99.90
2022-10-21T19:33:42.126Z,99.90
2022-10-21T19:36:11.437Z,99.90
2022-10-21T19:38:44.424Z,99.90
2022-10-21T19:41:15.029Z,99.90
2022-10-21T19:43:41.901Z,99.90
2022-10-21T19:46:09.290Z,99.90
2022-10-21T19:48:36.974Z,99.90
2022-10-21T19:51:04.872Z,99.90
2022-10-21T19:53:33.898Z,99.90
2022-10-21T19:56:05.866Z,99.90
2022-10-21T19:58:33.581Z,99.90
2022-10-21T20:01:02.382Z,99.90
2022-10-21T20:03:29.398Z,99.90
2022-10-21T20:05:56.319Z,99.90
2022-10-21T20:08:23.378Z,99.90
2022-10-21T20:11:01.365Z,99.90
2022-10-21T20:13:28.815Z,99.90
2022-10-21T20:15:55.621Z,99.90
2022-10-21T20:18:24.872Z,99.90
2022-10-21T20:20:55.126Z,99.90
2022-10-21T20:23:23.375Z,99.90
2022-10-21T20:25:55.761Z,99.90
2022-10-21T20:28:23.634Z,99.90
2022-10-21T20:39:31.953Z,99.90
2022-10-21T20:41:58.831Z,99.90
2022-10-21T20:44:25.594Z,99.90
2022-10-21T20:46:52.449Z,99.90
2022-10-21T20:49:19.182Z,99.90
2022-10-21T20:51:46.088Z,99.90
2022-10-21T20:54:16.686Z,99.90
2022-10-21T20:56:44.570Z,99.90
2022-10-21T20:59:15.414Z,99.90
2022-10-21T21:01:45.113Z,99.90
2022-10-21T21:04:14.117Z,99.90
2022-10-21T21:06:48.954Z,99.90
2022-10-21T21:18:11.664Z,99.90
2022-10-21T21:20:38.725Z,99.90
2022-10-21T21:23:05.627Z,99.90
2022-10-21T21:25:34.618Z,99.90
2022-10-21T21:28:01.358Z,99.90
2022-10-21T21:30:28.328Z,99.90
2022-10-21T21:32:55.199Z,99.90
2022-10-21T21:35:24.871Z,99.90
2022-10-21T21:37:51.665Z,99.90
2022-10-21T21:40:21.870Z,99.90
2022-10-21T21:42:48.670Z,99.90
2022-10-21T21:45:15.478Z,99.90
2022-10-21T21:47:42.482Z,99.90
2022-10-21T21:50:09.466Z,99.90
2022-10-21T21:52:37.746Z,99.90
2022-10-21T21:55:05.095Z,99.90
2022-10-21T21:57:31.874Z,99.90
2022-10-21T21:59:58.767Z,99.90
2022-10-21T22:02:25.719Z,99.90
2022-10-21T22:04:52.714Z,99.90
2022-10-21T22:07:19.721Z,99.90
2022-10-21T22:09:46.834Z,99.90
2022-10-21T22:12:14.819Z,99.90
2022-10-21T22:14:42.368Z,99.90
2022-10-21T22:17:09.238Z,99.90
2022-10-21T22:19:36.118Z,99.90
2022-10-21T22:22:03.135Z,99.90
2022-10-21T22:27:19.503Z,99.90
2022-10-21T22:29:46.771Z,99.90
2022-10-21T22:32:13.770Z,99.90
2022-10-21T22:34:40.606Z,99.90
2022-10-21T22:37:07.722Z,99.90
2022-10-21T22:39:34.702Z,99.90
2022-10-21T22:42:01.906Z,99.90
2022-10-21T22:44:28.689Z,99.90
2022-10-21T22:46:55.515Z,99.90
2022-10-21T22:49:22.345Z,99.90
2022-10-21T22:51:49.197Z,99.90
2022-10-21T22:54:35.920Z,99.90
2022-10-21T22:57:03.144Z,99.90
2022-10-21T22:59:30.084Z,99.90
2022-10-21T23:01:57.023Z,99.90
2022-10-21T23:04:23.952Z,99.90
2022-10-21T23:06:51.053Z,99.90
2022-10-21T23:09:18.223Z,99.90
2022-10-21T23:11:46.608Z,99.90
2022-10-21T23:14:14.437Z,99.90
2022-10-21T23:16:41.400Z,99.90
2022-10-21T23:19:08.644Z,99.90
2022-10-21T23:21:36.781Z,99.90
2022-10-21T23:24:04.787Z,99.90
2022-10-21T23:26:31.576Z,99.90
2022-10-21T23:28:58.385Z,99.90
2022-10-21T23:31:25.300Z,99.90
2022-10-21T23:33:52.061Z,99.90
2022-10-21T23:36:19.097Z,99.90
2022-10-21T23:38:45.835Z,99.90
2022-10-21T23:41:12.682Z,99.90
2022-10-21T23:43:39.406Z,99.90
2022-10-21T23:46:06.890Z,99.90
2022-10-21T23:48:33.663Z,99.90
2022-10-21T23:51:00.420Z,99.90
2022-10-21T23:53:27.154Z,99.90
2022-10-21T23:55:53.875Z,99.90
2022-10-21T23:58:20.676Z,99.90
